MPH35T LEMD-LEPA
Flight info
| Callsign | MPH35T |
|---|---|
| Flight time | 0h 52m |
| Altitude | 25000 |
| Route | NANDO T257 LASPO M871 GODOX |
| Aircraft | MD11/H-SDE1E2E3FGHIJ2J3J4J5M1RWXY/LB1D1 |
Departure
| Time | 2026-04-30 19:41 |
|---|---|
| Airport | Adolfo Suárez Madrid–Barajas Airport (LEMD) |
Arrival
| Time | 2026-04-30 20:33 |
|---|---|
| Airport | Palma de Mallorca Airport (LEPA) |
| Time | Latitude | Longitude | Altitude | Speed | Heading |
|---|---|---|---|---|---|
| 2026-04-30 19:41 | 40.57465 | -3.55610 | 10092 ft | 291 kts | 83° |
| 2026-04-30 19:41 | 40.57410 | -3.52759 | 10578 ft | 333 kts | 103° |
| 2026-04-30 19:42 | 40.56447 | -3.49880 | 11223 ft | 357 kts | 127° |
| 2026-04-30 19:42 | 40.54859 | -3.47314 | 12409 ft | 366 kts | 130° |
| 2026-04-30 19:42 | 40.53469 | -3.44483 | 13755 ft | 373 kts | 121° |
| 2026-04-30 19:42 | 40.52249 | -3.41415 | 14942 ft | 382 kts | 119° |
| 2026-04-30 19:43 | 40.51082 | -3.38354 | 16117 ft | 389 kts | 119° |
| 2026-04-30 19:43 | 40.49839 | -3.35160 | 17314 ft | 396 kts | 120° |
| 2026-04-30 19:43 | 40.48542 | -3.31928 | 18481 ft | 404 kts | 120° |
| 2026-04-30 19:44 | 40.45829 | -3.25411 | 20593 ft | 415 kts | 121° |
| 2026-04-30 19:44 | 40.44416 | -3.22078 | 21663 ft | 420 kts | 121° |
| 2026-04-30 19:44 | 40.42978 | -3.18706 | 22719 ft | 425 kts | 121° |
| 2026-04-30 19:44 | 40.41519 | -3.15297 | 23762 ft | 431 kts | 121° |
| 2026-04-30 19:45 | 40.40022 | -3.11804 | 24112 ft | 437 kts | 121° |
| 2026-04-30 19:45 | 40.38543 | -3.08352 | 24451 ft | 432 kts | 121° |
| 2026-04-30 19:45 | 40.37074 | -3.04925 | 24795 ft | 430 kts | 121° |
| 2026-04-30 19:45 | 40.35604 | -3.01502 | 25016 ft | 431 kts | 121° |
| 2026-04-30 19:46 | 40.34142 | -2.98100 | 25067 ft | 420 kts | 121° |
| 2026-04-30 19:46 | 40.32760 | -2.94881 | 25081 ft | 405 kts | 122° |
| 2026-04-30 19:46 | 40.31381 | -2.91680 | 25081 ft | 402 kts | 122° |
| 2026-04-30 19:46 | 40.30005 | -2.88493 | 25085 ft | 401 kts | 122° |
| 2026-04-30 19:47 | 40.28625 | -2.85303 | 25087 ft | 401 kts | 122° |
| 2026-04-30 19:47 | 40.27713 | -2.83196 | 25086 ft | 401 kts | 122° |
| 2026-04-30 19:47 | 40.25869 | -2.78937 | 25085 ft | 401 kts | 122° |
| 2026-04-30 19:47 | 40.24492 | -2.75759 | 25086 ft | 401 kts | 122° |
| 2026-04-30 19:48 | 40.23113 | -2.72579 | 25088 ft | 401 kts | 122° |
| 2026-04-30 19:48 | 40.21733 | -2.69400 | 25081 ft | 401 kts | 122° |
| 2026-04-30 19:48 | 40.20355 | -2.66231 | 25077 ft | 401 kts | 122° |
| 2026-04-30 19:48 | 40.18973 | -2.63052 | 25084 ft | 402 kts | 122° |
| 2026-04-30 19:49 | 40.17607 | -2.59917 | 25088 ft | 402 kts | 122° |
| 2026-04-30 19:49 | 40.14836 | -2.53574 | 25088 ft | 402 kts | 122° |
| 2026-04-30 19:49 | 40.13436 | -2.50405 | 25089 ft | 402 kts | 122° |
| 2026-04-30 19:50 | 40.12039 | -2.47247 | 25094 ft | 402 kts | 122° |
| 2026-04-30 19:50 | 40.10643 | -2.44084 | 25095 ft | 402 kts | 122° |
| 2026-04-30 19:50 | 40.09247 | -2.40913 | 25095 ft | 402 kts | 122° |
| 2026-04-30 19:50 | 40.07853 | -2.37742 | 25094 ft | 402 kts | 122° |
| 2026-04-30 19:51 | 40.06480 | -2.34618 | 25092 ft | 402 kts | 122° |
| 2026-04-30 19:51 | 40.05072 | -2.31416 | 25094 ft | 402 kts | 122° |
| 2026-04-30 19:51 | 40.03700 | -2.28297 | 25095 ft | 402 kts | 122° |
| 2026-04-30 19:51 | 40.02306 | -2.25132 | 25098 ft | 403 kts | 122° |
| 2026-04-30 19:52 | 40.00908 | -2.21963 | 25095 ft | 403 kts | 122° |
| 2026-04-30 19:52 | 39.99508 | -2.18787 | 25094 ft | 403 kts | 122° |
| 2026-04-30 19:52 | 39.98127 | -2.15601 | 25097 ft | 403 kts | 122° |
| 2026-04-30 19:52 | 39.96765 | -2.12406 | 25101 ft | 403 kts | 121° |
| 2026-04-30 19:53 | 39.95404 | -2.09190 | 25101 ft | 403 kts | 121° |
| 2026-04-30 19:53 | 39.94051 | -2.05987 | 25104 ft | 403 kts | 121° |
| 2026-04-30 19:53 | 39.92699 | -2.02786 | 25100 ft | 403 kts | 121° |
| 2026-04-30 19:53 | 39.91342 | -1.99576 | 25102 ft | 403 kts | 121° |
| 2026-04-30 19:54 | 39.90003 | -1.96415 | 25103 ft | 403 kts | 121° |
| 2026-04-30 19:54 | 39.88649 | -1.93223 | 25102 ft | 403 kts | 121° |
| 2026-04-30 19:54 | 39.87288 | -1.90019 | 25094 ft | 403 kts | 121° |
| 2026-04-30 19:54 | 39.85929 | -1.86822 | 25101 ft | 404 kts | 121° |
| 2026-04-30 19:55 | 39.84568 | -1.83625 | 25098 ft | 404 kts | 121° |
| 2026-04-30 19:55 | 39.83200 | -1.80417 | 25109 ft | 411 kts | 121° |
| 2026-04-30 19:55 | 39.81774 | -1.77082 | 25109 ft | 428 kts | 121° |
| 2026-04-30 19:55 | 39.80325 | -1.73692 | 25112 ft | 430 kts | 121° |
| 2026-04-30 19:56 | 39.78868 | -1.70282 | 25105 ft | 431 kts | 122° |
| 2026-04-30 19:56 | 39.77413 | -1.66877 | 25113 ft | 432 kts | 122° |
| 2026-04-30 19:56 | 39.75946 | -1.63450 | 25112 ft | 435 kts | 122° |
| 2026-04-30 19:56 | 39.74441 | -1.59949 | 25111 ft | 452 kts | 122° |
| 2026-04-30 19:57 | 39.72900 | -1.56365 | 25110 ft | 455 kts | 122° |
| 2026-04-30 19:57 | 39.71345 | -1.52767 | 25101 ft | 455 kts | 122° |
| 2026-04-30 19:57 | 39.69809 | -1.49223 | 25097 ft | 457 kts | 122° |
| 2026-04-30 19:57 | 39.68249 | -1.45621 | 25095 ft | 458 kts | 122° |
| 2026-04-30 19:58 | 39.66682 | -1.42001 | 25090 ft | 458 kts | 122° |
| 2026-04-30 19:58 | 39.65125 | -1.38403 | 25088 ft | 458 kts | 122° |
| 2026-04-30 19:58 | 39.63565 | -1.34798 | 25089 ft | 459 kts | 122° |
| 2026-04-30 19:58 | 39.61997 | -1.31177 | 25085 ft | 459 kts | 122° |
| 2026-04-30 19:59 | 39.60432 | -1.27567 | 25084 ft | 459 kts | 122° |
| 2026-04-30 19:59 | 39.58887 | -1.24009 | 25085 ft | 459 kts | 122° |
| 2026-04-30 19:59 | 39.55752 | -1.16798 | 25086 ft | 459 kts | 122° |
| 2026-04-30 20:00 | 39.54176 | -1.13196 | 25080 ft | 459 kts | 122° |
| 2026-04-30 20:00 | 39.52598 | -1.09599 | 25089 ft | 458 kts | 122° |
| 2026-04-30 20:00 | 39.51023 | -1.06008 | 25096 ft | 458 kts | 122° |
| 2026-04-30 20:00 | 39.49450 | -1.02421 | 25100 ft | 458 kts | 122° |
| 2026-04-30 20:01 | 39.46833 | -0.96455 | 25106 ft | 458 kts | 122° |
| 2026-04-30 20:01 | 39.45256 | -0.92862 | 25113 ft | 458 kts | 122° |
| 2026-04-30 20:01 | 39.43679 | -0.89271 | 25110 ft | 458 kts | 122° |
| 2026-04-30 20:02 | 39.40531 | -0.82098 | 25108 ft | 458 kts | 122° |
| 2026-04-30 20:02 | 39.38956 | -0.78515 | 25107 ft | 458 kts | 122° |
| 2026-04-30 20:03 | 39.35819 | -0.71390 | 25104 ft | 460 kts | 122° |
| 2026-04-30 20:03 | 39.34232 | -0.67791 | 25100 ft | 460 kts | 122° |
| 2026-04-30 20:03 | 39.32645 | -0.64195 | 25105 ft | 460 kts | 122° |
| 2026-04-30 20:03 | 39.31061 | -0.60607 | 25096 ft | 460 kts | 122° |
| 2026-04-30 20:04 | 39.29499 | -0.57003 | 25094 ft | 460 kts | 119° |
| 2026-04-30 20:04 | 39.28353 | -0.53131 | 25094 ft | 464 kts | 106° |
| 2026-04-30 20:04 | 39.27926 | -0.48989 | 25093 ft | 468 kts | 92° |
| 2026-04-30 20:05 | 39.28521 | -0.40649 | 25089 ft | 470 kts | 83° |
| 2026-04-30 20:05 | 39.28963 | -0.36460 | 25091 ft | 470 kts | 84° |
| 2026-04-30 20:05 | 39.29659 | -0.28076 | 25088 ft | 469 kts | 86° |
| 2026-04-30 20:06 | 39.29920 | -0.23868 | 25094 ft | 469 kts | 87° |
| 2026-04-30 20:06 | 39.30150 | -0.19667 | 25093 ft | 469 kts | 88° |
| 2026-04-30 20:06 | 39.30365 | -0.15462 | 25091 ft | 469 kts | 88° |
| 2026-04-30 20:06 | 39.30574 | -0.11259 | 25092 ft | 469 kts | 88° |
| 2026-04-30 20:07 | 39.30783 | -0.07060 | 25090 ft | 469 kts | 88° |
| 2026-04-30 20:07 | 39.30989 | -0.02906 | 25091 ft | 469 kts | 88° |
| 2026-04-30 20:07 | 39.31407 | 0.05510 | 25090 ft | 471 kts | 88° |
| 2026-04-30 20:08 | 39.31617 | 0.09744 | 25090 ft | 471 kts | 88° |
| 2026-04-30 20:08 | 39.31825 | 0.13968 | 25092 ft | 471 kts | 88° |
| 2026-04-30 20:08 | 39.32031 | 0.18200 | 25087 ft | 471 kts | 88° |
| 2026-04-30 20:08 | 39.32236 | 0.22417 | 25090 ft | 471 kts | 88° |
| 2026-04-30 20:09 | 39.32440 | 0.26654 | 25090 ft | 471 kts | 88° |
| 2026-04-30 20:09 | 39.32641 | 0.30876 | 25087 ft | 471 kts | 88° |
| 2026-04-30 20:09 | 39.33040 | 0.39348 | 25077 ft | 471 kts | 88° |
| 2026-04-30 20:10 | 39.33411 | 0.47767 | 25085 ft | 473 kts | 88° |
| 2026-04-30 20:10 | 39.33591 | 0.52006 | 25085 ft | 473 kts | 88° |
| 2026-04-30 20:10 | 39.33775 | 0.56247 | 25079 ft | 473 kts | 88° |
| 2026-04-30 20:11 | 39.34149 | 0.64734 | 25080 ft | 473 kts | 88° |
| 2026-04-30 20:11 | 39.34335 | 0.68893 | 25071 ft | 447 kts | 88° |
| 2026-04-30 20:11 | 39.34510 | 0.72793 | 25076 ft | 427 kts | 88° |
| 2026-04-30 20:12 | 39.34841 | 0.80385 | 25077 ft | 421 kts | 88° |
| 2026-04-30 20:12 | 39.35003 | 0.84171 | 25080 ft | 421 kts | 88° |
| 2026-04-30 20:12 | 39.35163 | 0.87950 | 25079 ft | 421 kts | 88° |
| 2026-04-30 20:13 | 39.35320 | 0.91673 | 25075 ft | 421 kts | 88° |
| 2026-04-30 20:13 | 39.35481 | 0.95508 | 25077 ft | 422 kts | 88° |
| 2026-04-30 20:13 | 39.35637 | 0.99247 | 25074 ft | 422 kts | 88° |
| 2026-04-30 20:13 | 39.35794 | 1.03041 | 24939 ft | 424 kts | 88° |
| 2026-04-30 20:14 | 39.35950 | 1.06837 | 24711 ft | 424 kts | 88° |
| 2026-04-30 20:14 | 39.36105 | 1.10611 | 23944 ft | 418 kts | 88° |
| 2026-04-30 20:14 | 39.36257 | 1.14373 | 22436 ft | 420 kts | 88° |
| 2026-04-30 20:14 | 39.36409 | 1.18154 | 20836 ft | 422 kts | 88° |
| 2026-04-30 20:15 | 39.36560 | 1.21955 | 19201 ft | 424 kts | 88° |
| 2026-04-30 20:15 | 39.36710 | 1.25777 | 17453 ft | 426 kts | 88° |
| 2026-04-30 20:15 | 39.36859 | 1.29575 | 15996 ft | 419 kts | 88° |
| 2026-04-30 20:15 | 39.37002 | 1.33209 | 14234 ft | 395 kts | 88° |
| 2026-04-30 20:16 | 39.37140 | 1.36789 | 13357 ft | 406 kts | 88° |
| 2026-04-30 20:16 | 39.37321 | 1.40400 | 12633 ft | 399 kts | 85° |
| 2026-04-30 20:16 | 39.37663 | 1.43947 | 12039 ft | 394 kts | 82° |
| 2026-04-30 20:16 | 39.38089 | 1.47419 | 11502 ft | 390 kts | 80° |
| 2026-04-30 20:17 | 39.38545 | 1.50859 | 11140 ft | 385 kts | 79° |
| 2026-04-30 20:17 | 39.38994 | 1.54184 | 10941 ft | 371 kts | 80° |
| 2026-04-30 20:17 | 39.39415 | 1.57322 | 10810 ft | 339 kts | 80° |
| 2026-04-30 20:17 | 39.39797 | 1.60191 | 10684 ft | 311 kts | 80° |
| 2026-04-30 20:18 | 39.40158 | 1.62928 | 10571 ft | 306 kts | 80° |
| 2026-04-30 20:18 | 39.40511 | 1.65623 | 10445 ft | 302 kts | 80° |
| 2026-04-30 20:18 | 39.40863 | 1.68321 | 10219 ft | 304 kts | 80° |
| 2026-04-30 20:18 | 39.41212 | 1.71005 | 9763 ft | 302 kts | 80° |
| 2026-04-30 20:19 | 39.41556 | 1.73661 | 9274 ft | 297 kts | 80° |
| 2026-04-30 20:19 | 39.41894 | 1.76282 | 8811 ft | 294 kts | 79° |
| 2026-04-30 20:19 | 39.42229 | 1.78877 | 8370 ft | 292 kts | 79° |
| 2026-04-30 20:19 | 39.42560 | 1.81455 | 7926 ft | 289 kts | 79° |
| 2026-04-30 20:20 | 39.42887 | 1.84001 | 7504 ft | 284 kts | 79° |
| 2026-04-30 20:20 | 39.43202 | 1.86466 | 7145 ft | 266 kts | 78° |
| 2026-04-30 20:20 | 39.43488 | 1.88722 | 6789 ft | 244 kts | 78° |
| 2026-04-30 20:20 | 39.43762 | 1.90867 | 6457 ft | 239 kts | 78° |
| 2026-04-30 20:21 | 39.44027 | 1.92939 | 6260 ft | 236 kts | 78° |
| 2026-04-30 20:21 | 39.44294 | 1.95021 | 6072 ft | 234 kts | 78° |
| 2026-04-30 20:21 | 39.44559 | 1.97098 | 5878 ft | 233 kts | 78° |
| 2026-04-30 20:21 | 39.44823 | 1.99168 | 5700 ft | 232 kts | 78° |
| 2026-04-30 20:22 | 39.45092 | 2.01229 | 5512 ft | 231 kts | 77° |
| 2026-04-30 20:22 | 39.45364 | 2.03275 | 5316 ft | 231 kts | 84° |
| 2026-04-30 20:22 | 39.45082 | 2.05314 | 5143 ft | 233 kts | 109° |
| 2026-04-30 20:22 | 39.44447 | 2.07255 | 5007 ft | 233 kts | 112° |
| 2026-04-30 20:23 | 39.43796 | 2.09177 | 4996 ft | 233 kts | 111° |
| 2026-04-30 20:23 | 39.43143 | 2.11102 | 4994 ft | 233 kts | 111° |
| 2026-04-30 20:23 | 39.42490 | 2.13024 | 4989 ft | 233 kts | 112° |
| 2026-04-30 20:23 | 39.41845 | 2.14927 | 4989 ft | 233 kts | 111° |
| 2026-04-30 20:24 | 39.41196 | 2.16848 | 4994 ft | 232 kts | 110° |
| 2026-04-30 20:24 | 39.40889 | 2.18877 | 4996 ft | 229 kts | 89° |
| 2026-04-30 20:24 | 39.40902 | 2.20941 | 4993 ft | 229 kts | 86° |
| 2026-04-30 20:24 | 39.40932 | 2.23005 | 4989 ft | 230 kts | 86° |
| 2026-04-30 20:25 | 39.40986 | 2.27074 | 4988 ft | 220 kts | 86° |
| 2026-04-30 20:25 | 39.41012 | 2.29026 | 4994 ft | 219 kts | 86° |
| 2026-04-30 20:26 | 39.41074 | 2.32929 | 4482 ft | 216 kts | 87° |
| 2026-04-30 20:26 | 39.41152 | 2.36762 | 3685 ft | 211 kts | 86° |
| 2026-04-30 20:26 | 39.41317 | 2.38628 | 3319 ft | 208 kts | 74° |
| 2026-04-30 20:27 | 39.42112 | 2.42029 | 2979 ft | 186 kts | 72° |
| 2026-04-30 20:27 | 39.42874 | 2.45168 | 2993 ft | 182 kts | 72° |
| 2026-04-30 20:28 | 39.43932 | 2.48128 | 2995 ft | 182 kts | 59° |
| 2026-04-30 20:28 | 39.45221 | 2.50900 | 2991 ft | 180 kts | 58° |
| 2026-04-30 20:29 | 39.46516 | 2.53659 | 2993 ft | 179 kts | 58° |
| 2026-04-30 20:30 | 39.48371 | 2.57598 | 2381 ft | 155 kts | 59° |
| 2026-04-30 20:30 | 39.50034 | 2.61124 | 1780 ft | 150 kts | 60° |
| 2026-04-30 20:31 | 39.51661 | 2.64575 | 1201 ft | 150 kts | 59° |
| 2026-04-30 20:32 | 39.53304 | 2.68068 | 643 ft | 152 kts | 58° |
| 2026-04-30 20:32 | 39.54433 | 2.70475 | 239 ft | 141 kts | 58° |
| 2026-04-30 20:33 | 39.54963 | 2.71579 | 41 ft | 133 kts | 58° |
| 2026-04-30 20:33 | 39.55626 | 2.72994 | 37 ft | 57 kts | 59° |
| 2026-04-30 20:33 | 39.55717 | 2.73297 | 37 ft | 24 kts | 88° |
| 2026-04-30 20:34 | 39.55685 | 2.73443 | 37 ft | 0 kts | 141° |
| 2026-04-30 20:35 | 39.55683 | 2.73445 | 37 ft | 1 kts | 141° |
| 2026-04-30 20:36 | 39.55659 | 2.73470 | 37 ft | 7 kts | 142° |
| 2026-04-30 20:36 | 39.55618 | 2.73504 | 37 ft | 7 kts | 151° |
| 2026-04-30 20:36 | 39.55503 | 2.73540 | 36 ft | 9 kts | 206° |
| 2026-04-30 20:37 | 39.55478 | 2.73493 | 37 ft | 5 kts | 253° |
| 2026-04-30 20:37 | 39.55475 | 2.73468 | 37 ft | 0 kts | 274° |
| 2026-04-30 20:37 | 39.55489 | 2.73455 | 36 ft | 0 kts | 337° |